Time;durP1;ratioP1;P1;durP2;ratioP2;P2;SDS_P1;SDS_P2;PMS_P1;PMS_P2;Temp;Humidity;BMP_temperature;BMP_pressure;BME280_temperature;BME280_humidity;BME280_pressure;Samples;Min_cycle;Max_cycle;Signal;HPM_P1;HPM_P2
2021/12/03 00:00:22;;;;;;;15.77;7.37;;;;;;;6.12;84.20;93661.59;5125448;28;20326;-73
2021/12/03 00:02:50;;;;;;;14.17;7.90;;;;;;;6.13;83.21;93653.66;5123042;28;20774;-75
2021/12/03 00:05:19;;;;;;;12.60;7.87;;;;;;;6.15;83.54;93664.53;5122961;28;20714;-73
2021/12/03 00:07:48;;;;;;;12.50;8.10;;;;;;;6.22;83.66;93660.09;5121785;28;20289;-74
2021/12/03 00:10:23;;;;;;;15.33;9.07;;;;;;;6.18;83.54;93664.09;5122292;28;20199;-73
2021/12/03 00:12:53;;;;;;;12.53;8.33;;;;;;;6.21;84.48;93684.31;5121648;28;20286;-73
2021/12/03 00:15:25;;;;;;;16.60;8.90;;;;;;;6.20;83.68;93677.56;5122854;28;20238;-73
2021/12/03 00:17:54;;;;;;;14.10;8.37;;;;;;;6.23;83.38;93666.81;5122790;28;20637;-74
2021/12/03 00:20:26;;;;;;;9.90;6.33;;;;;;;6.29;83.89;93675.53;5121800;28;20201;-74
2021/12/03 00:22:57;;;;;;;10.43;5.90;;;;;;;6.29;84.54;93657.47;5123513;28;20209;-73
2021/12/03 00:25:26;;;;;;;12.50;5.83;;;;;;;6.33;84.25;93670.69;5118536;28;20206;-73
2021/12/03 00:27:55;;;;;;;12.33;6.17;;;;;;;6.39;83.79;93672.41;5122815;28;20324;-72
2021/12/03 00:30:25;;;;;;;12.83;6.80;;;;;;;6.47;83.07;93659.22;5122636;27;20209;-73
2021/12/03 00:32:54;;;;;;;11.07;6.30;;;;;;;6.53;83.56;93671.25;5124364;28;20202;-74
2021/12/03 00:35:26;;;;;;;8.93;6.27;;;;;;;6.51;82.51;93658.56;5120191;28;20233;-73
2021/12/03 00:37:54;;;;;;;10.53;6.47;;;;;;;6.58;82.67;93661.09;5124093;28;20210;-73
2021/12/03 00:40:25;;;;;;;11.83;6.50;;;;;;;6.59;82.52;93673.75;5120820;28;20256;-74
2021/12/03 00:42:56;;;;;;;10.93;6.37;;;;;;;6.49;82.52;93670.91;5122957;28;20691;-75
2021/12/03 00:45:24;;;;;;;12.93;6.67;;;;;;;6.57;82.18;93683.50;5121611;28;20206;-74
2021/12/03 00:47:53;;;;;;;12.10;6.60;;;;;;;6.56;82.04;93679.34;5121538;28;20262;-74
2021/12/03 00:50:23;;;;;;;11.87;6.60;;;;;;;6.61;82.78;93692.38;5125565;28;20218;-75
2021/12/03 00:52:52;;;;;;;11.27;6.80;;;;;;;6.60;82.77;93685.66;5119916;27;20242;-73
2021/12/03 00:55:21;;;;;;;13.63;6.80;;;;;;;6.52;84.48;93670.44;5127538;27;20243;-73
2021/12/03 00:57:51;;;;;;;13.13;6.47;;;;;;;6.55;84.34;93679.59;5129421;27;20202;-74
2021/12/03 01:00:24;;;;;;;11.20;6.70;;;;;;;6.47;84.83;93693.53;5128779;27;20203;-75
2021/12/03 01:02:53;;;;;;;10.30;6.83;;;;;;;6.53;84.17;93676.41;5125060;27;20198;-74
2021/12/03 01:05:21;;;;;;;12.80;6.73;;;;;;;6.52;84.13;93682.59;5124948;27;20211;-73
2021/12/03 01:07:50;;;;;;;15.30;7.50;;;;;;;6.60;84.66;93684.88;5121074;27;20227;-73
2021/12/03 01:10:19;;;;;;;15.00;9.07;;;;;;;6.67;83.32;93650.22;5130682;27;20199;-73
2021/12/03 01:12:48;;;;;;;17.47;8.77;;;;;;;6.61;84.08;93665.81;5122886;27;20212;-72
2021/12/03 01:15:19;;;;;;;19.30;10.13;;;;;;;6.62;84.16;93683.66;5113065;27;20235;-73
2021/12/03 01:17:49;;;;;;;20.27;10.93;;;;;;;6.58;84.29;93659.25;5125508;27;20645;-73
2021/12/03 01:20:19;;;;;;;19.23;10.53;;;;;;;6.48;84.56;93669.34;5126641;27;20298;-74
2021/12/03 01:22:49;;;;;;;17.07;8.87;;;;;;;6.49;85.31;93670.91;5130233;27;20270;-74
2021/12/03 01:25:20;;;;;;;12.87;5.30;;;;;;;6.73;85.20;93661.47;5126220;27;20217;-73
2021/12/03 01:27:52;;;;;;;10.53;5.50;;;;;;;6.96;83.97;93635.72;5126103;27;20242;-73
2021/12/03 01:30:22;;;;;;;7.57;4.53;;;;;;;7.38;81.26;93650.19;5122225;27;20251;-75
2021/12/03 01:32:53;;;;;;;8.27;5.13;;;;;;;7.60;80.28;93642.69;5128323;27;20226;-75
2021/12/03 01:35:21;;;;;;;6.73;3.93;;;;;;;7.77;79.68;93648.75;5130657;27;20215;-75
2021/12/03 01:37:51;;;;;;;6.97;3.53;;;;;;;7.95;78.66;93634.91;5127816;27;20264;-77
2021/12/03 01:40:21;;;;;;;6.27;4.00;;;;;;;8.07;78.24;93640.06;5127184;27;20275;-77
2021/12/03 01:42:50;;;;;;;5.83;3.97;;;;;;;8.19;76.82;93651.19;5123044;27;20199;-76
2021/12/03 01:45:21;;;;;;;9.80;4.43;;;;;;;8.28;75.92;93660.22;5126653;27;20227;-76
2021/12/03 01:47:53;;;;;;;6.73;4.40;;;;;;;8.33;75.40;93650.75;5128083;27;20209;-77
2021/12/03 01:50:25;;;;;;;7.97;4.57;;;;;;;8.32;75.44;93654.34;5128958;27;20195;-76
2021/12/03 01:52:53;;;;;;;6.07;4.47;;;;;;;8.47;74.94;93661.63;5122529;27;20835;-77
2021/12/03 01:55:21;;;;;;;7.27;4.23;;;;;;;8.32;75.46;93649.16;5129441;27;20222;-76
2021/12/03 01:57:49;;;;;;;8.70;5.57;;;;;;;8.21;74.37;93647.34;5124937;27;20199;-76
2021/12/03 02:00:23;;;;;;;12.27;4.87;;;;;;;8.08;74.12;93639.06;5128993;27;20994;-76
2021/12/03 02:02:54;;;;;;;7.93;5.37;;;;;;;8.14;73.75;93662.22;5129040;27;20210;-74
2021/12/03 02:05:24;;;;;;;7.93;4.80;;;;;;;8.02;73.59;93664.81;5129942;27;20187;-76
2021/12/03 02:07:52;;;;;;;8.07;4.73;;;;;;;7.89;74.44;93602.97;5124908;27;20199;-74
2021/12/03 02:10:22;;;;;;;6.70;4.27;;;;;;;7.71;75.06;93630.75;5125645;27;20654;-75
2021/12/03 02:12:51;;;;;;;8.00;4.10;;;;;;;7.78;75.91;93613.34;5126233;27;20203;-74
2021/12/03 02:15:20;;;;;;;4.63;3.40;;;;;;;7.88;75.15;93658.28;5125539;27;20706;-75
2021/12/03 02:17:50;;;;;;;8.90;4.20;;;;;;;7.99;74.55;93628.28;5128235;27;20207;-74
2021/12/03 02:20:20;;;;;;;6.73;3.87;;;;;;;8.00;75.14;93619.50;5129605;27;20287;-74
2021/12/03 02:22:51;;;;;;;7.90;3.90;;;;;;;7.88;75.67;93608.38;5125556;27;20203;-74
2021/12/03 02:25:22;;;;;;;6.37;4.07;;;;;;;7.92;75.99;93625.81;5121502;27;20207;-74
2021/12/03 02:27:51;;;;;;;6.40;3.90;;;;;;;7.92;75.86;93622.44;5126873;27;20207;-74
2021/12/03 02:30:21;;;;;;;6.43;3.87;;;;;;;8.00;75.42;93617.69;5129513;27;20645;-74
2021/12/03 02:32:51;;;;;;;6.53;4.00;;;;;;;7.97;75.38;93609.59;5126635;27;20218;-75
2021/12/03 02:35:21;;;;;;;5.70;3.37;;;;;;;8.05;75.62;93627.38;5126045;27;20227;-74
2021/12/03 02:37:53;;;;;;;5.83;3.27;;;;;;;8.18;73.59;93598.66;5127535;27;20230;-74
2021/12/03 02:40:23;;;;;;;5.87;4.13;;;;;;;8.23;73.22;93640.16;5126772;27;20199;-74
2021/12/03 02:42:53;;;;;;;8.30;3.93;;;;;;;8.27;72.96;93632.72;5121970;27;20294;-75
2021/12/03 02:45:22;;;;;;;4.10;3.40;;;;;;;8.20;73.22;93621.69;5127331;27;20685;-75
2021/12/03 02:47:52;;;;;;;6.00;3.57;;;;;;;8.17;73.24;93627.31;5127054;27;20207;-75
2021/12/03 02:50:20;;;;;;;6.40;4.00;;;;;;;8.21;73.65;93634.41;5125026;27;20207;-73
2021/12/03 02:52:51;;;;;;;8.13;4.10;;;;;;;8.14;74.04;93625.97;5128072;27;20199;-74
2021/12/03 02:55:20;;;;;;;9.23;4.10;;;;;;;8.04;73.61;93635.34;5127510;27;20208;-74
2021/12/03 02:57:48;;;;;;;8.57;4.07;;;;;;;8.00;74.14;93611.72;5127335;27;20218;-75
2021/12/03 03:00:21;;;;;;;6.87;3.77;;;;;;;7.91;75.01;93602.75;5127526;27;20260;-74
2021/12/03 03:02:51;;;;;;;8.13;4.13;;;;;;;7.80;75.83;93627.59;5127967;27;20211;-75
2021/12/03 03:05:20;;;;;;;8.27;4.23;;;;;;;7.86;75.25;93625.91;5128667;27;20310;-75
2021/12/03 03:07:50;;;;;;;6.47;4.00;;;;;;;7.86;76.14;93647.41;5126224;27;20207;-75
2021/12/03 03:10:23;;;;;;;7.03;4.00;;;;;;;7.74;76.33;93625.91;5123015;27;20252;-75
2021/12/03 03:12:51;;;;;;;6.90;3.93;;;;;;;7.74;76.27;93645.81;5125396;27;20538;-75
2021/12/03 03:15:20;;;;;;;4.77;3.57;;;;;;;7.74;76.30;93651.78;5127078;27;20591;-74
2021/12/03 03:17:50;;;;;;;7.07;4.00;;;;;;;7.76;76.49;93654.16;5125574;27;20551;-74
2021/12/03 03:20:21;;;;;;;5.27;3.80;;;;;;;7.70;77.02;93642.13;5127450;27;20200;-75
2021/12/03 03:22:52;;;;;;;8.50;4.00;;;;;;;7.68;77.23;93618.28;5120115;27;20214;-76
2021/12/03 03:25:21;;;;;;;8.97;4.27;;;;;;;7.70;77.89;93606.72;5118630;27;20202;-75
2021/12/03 03:27:50;;;;;;;9.33;4.50;;;;;;;7.62;78.76;93643.22;5126911;27;20207;-75
2021/12/03 03:30:21;;;;;;;10.07;4.53;;;;;;;7.66;78.83;93633.22;5121257;27;20211;-75
2021/12/03 03:32:51;;;;;;;7.13;3.50;;;;;;;7.83;78.70;93640.09;5126624;27;20199;-76
2021/12/03 03:35:18;;;;;;;4.83;3.53;;;;;;;7.92;78.30;93625.81;5125041;27;20203;-76
2021/12/03 03:37:47;;;;;;;7.40;4.60;;;;;;;7.94;78.52;93646.25;5126908;27;20264;-75
2021/12/03 03:40:18;;;;;;;7.80;4.47;;;;;;;7.98;78.27;93650.78;5127219;28;20203;-76
2021/12/03 03:42:47;;;;;;;7.60;4.37;;;;;;;8.00;78.22;93628.03;5125936;28;20286;-76
2021/12/03 03:45:20;;;;;;;4.97;3.83;;;;;;;8.01;78.34;93615.91;5124519;28;20204;-76
2021/12/03 03:47:48;;;;;;;5.23;4.00;;;;;;;7.94;78.60;93639.28;5121499;28;20558;-75
2021/12/03 03:50:18;;;;;;;6.17;4.13;;;;;;;7.95;78.59;93646.06;5126442;28;20627;-76
2021/12/03 03:52:47;;;;;;;7.20;4.50;;;;;;;7.96;78.59;93623.56;5116575;28;20230;-77
2021/12/03 03:55:18;;;;;;;9.60;4.20;;;;;;;7.90;78.97;93627.84;5127754;28;20199;-76
2021/12/03 03:57:47;;;;;;;7.47;5.00;;;;;;;7.97;78.52;93627.69;5123599;28;20252;-76
2021/12/03 04:00:20;;;;;;;7.13;4.80;;;;;;;7.98;78.82;93630.06;5121636;28;20253;-76
2021/12/03 04:02:49;;;;;;;8.43;5.40;;;;;;;7.99;78.88;93647.16;5126015;28;20207;-76
2021/12/03 04:05:18;;;;;;;14.77;4.87;;;;;;;8.12;78.17;93655.69;5122083;28;20235;-76
2021/12/03 04:07:46;;;;;;;7.97;4.87;;;;;;;8.05;78.05;93637.72;5122669;28;20699;-76
2021/12/03 04:10:16;;;;;;;7.23;4.70;;;;;;;7.98;78.18;93629.28;5127263;28;20320;-75
2021/12/03 04:12:48;;;;;;;11.73;5.43;;;;;;;8.02;78.45;93644.09;5124384;28;20286;-76
2021/12/03 04:15:17;;;;;;;8.70;4.93;;;;;;;7.98;78.16;93658.53;5121755;28;20616;-76
2021/12/03 04:17:45;;;;;;;8.03;4.20;;;;;;;7.95;78.26;93653.00;5123205;28;20726;-75
2021/12/03 04:20:15;;;;;;;6.70;4.50;;;;;;;8.07;77.97;93635.69;5124070;28;20270;-76
2021/12/03 04:22:44;;;;;;;6.43;4.63;;;;;;;8.07;78.50;93653.78;5126164;27;20214;-75
2021/12/03 04:25:17;;;;;;;7.80;4.73;;;;;;;8.01;79.28;93636.59;5123975;27;20818;-75
2021/12/03 04:27:48;;;;;;;10.90;5.10;;;;;;;8.00;78.82;93643.56;5127302;27;20278;-75
2021/12/03 04:30:18;;;;;;;6.93;5.07;;;;;;;8.00;78.39;93653.91;5124638;27;20981;-75
2021/12/03 04:32:48;;;;;;;8.53;5.23;;;;;;;7.98;78.44;93661.13;5129176;27;20203;-76
2021/12/03 04:35:16;;;;;;;9.13;5.33;;;;;;;8.05;78.26;93652.47;5128360;27;20199;-74
2021/12/03 04:37:45;;;;;;;9.73;5.60;;;;;;;8.00;78.47;93660.88;5130068;27;20227;-74
2021/12/03 04:40:17;;;;;;;7.40;4.93;;;;;;;8.00;78.80;93658.28;5127035;27;20199;-74
2021/12/03 04:42:46;;;;;;;8.67;5.33;;;;;;;7.89;79.89;93696.09;5128839;27;20195;-74
2021/12/03 04:45:18;;;;;;;13.30;6.90;;;;;;;7.95;80.31;93665.94;5130121;27;20199;-75
2021/12/03 04:47:46;;;;;;;17.50;8.93;;;;;;;8.10;79.61;93684.41;5123053;27;20195;-76
2021/12/03 04:50:15;;;;;;;15.10;8.50;;;;;;;8.06;79.57;93659.19;5128568;27;20227;-75
2021/12/03 04:52:43;;;;;;;10.23;6.33;;;;;;;8.07;80.53;93669.31;5129783;27;20210;-77
2021/12/03 04:55:14;;;;;;;8.60;5.40;;;;;;;8.20;79.96;93681.22;5131410;27;20676;-76
2021/12/03 04:57:45;;;;;;;8.60;5.00;;;;;;;8.17;80.86;93682.47;5126444;27;20231;-77
2021/12/03 05:00:16;;;;;;;7.90;5.40;;;;;;;8.14;80.32;93689.91;5124184;27;20200;-76
2021/12/03 05:02:46;;;;;;;7.97;4.97;;;;;;;8.24;79.87;93680.53;5128146;27;20199;-75
2021/12/03 05:05:15;;;;;;;11.50;5.53;;;;;;;8.21;79.83;93696.53;5130186;27;20207;-75
2021/12/03 05:07:57;;;;;;;8.87;5.10;;;;;;;8.20;80.00;93694.16;5125896;27;20222;-77
2021/12/03 05:10:29;;;;;;;10.10;5.53;;;;;;;8.27;80.15;93682.72;5122273;27;20194;-75
2021/12/03 05:13:01;;;;;;;7.03;5.00;;;;;;;8.25;80.43;93682.13;5129680;27;20290;-75
2021/12/03 05:15:30;;;;;;;6.07;3.33;;;;;;;8.42;79.13;93685.63;5125276;27;20238;-75
2021/12/03 05:17:58;;;;;;;4.93;3.00;;;;;;;8.78;76.40;93689.69;5124978;27;20230;-75
2021/12/03 05:20:26;;;;;;;5.60;2.80;;;;;;;9.00;75.07;93690.59;5126378;27;20599;-75
2021/12/03 05:22:54;;;;;;;6.73;3.37;;;;;;;9.16;74.43;93690.88;5126632;27;20207;-74
2021/12/03 05:25:22;;;;;;;6.90;4.00;;;;;;;9.27;74.49;93684.84;5130505;27;20286;-74
2021/12/03 05:27:52;;;;;;;10.73;4.10;;;;;;;9.27;73.95;93701.19;5127513;27;20676;-73
2021/12/03 05:30:22;;;;;;;9.43;4.57;;;;;;;9.26;73.48;93693.66;5127781;27;20203;-74
2021/12/03 05:32:51;;;;;;;9.33;5.03;;;;;;;9.21;74.00;93702.13;5121211;27;20330;-74
2021/12/03 05:35:19;;;;;;;7.17;5.03;;;;;;;9.20;73.96;93697.19;5123469;27;20290;-76
2021/12/03 05:37:47;;;;;;;9.27;5.17;;;;;;;9.20;74.34;93704.97;5123120;27;20234;-75
2021/12/03 05:40:16;;;;;;;6.93;4.77;;;;;;;9.14;75.24;93724.81;5130352;27;20210;-75
2021/12/03 05:42:46;;;;;;;5.80;4.40;;;;;;;9.15;75.14;93723.03;5123433;27;20227;-75
2021/12/03 05:45:17;;;;;;;9.97;5.60;;;;;;;9.15;75.80;93710.81;5128860;27;20195;-75
2021/12/03 05:47:48;;;;;;;10.53;5.43;;;;;;;9.03;76.75;93713.47;5122033;27;20275;-75
2021/12/03 05:50:18;;;;;;;14.27;5.70;;;;;;;9.12;76.59;93740.59;5130765;27;20196;-70
2021/12/03 05:52:46;;;;;;;8.43;4.73;;;;;;;9.21;74.75;93738.41;5127604;27;20199;-70
2021/12/03 05:55:15;;;;;;;10.40;5.60;;;;;;;9.18;75.78;93730.34;5127464;27;20199;-72
2021/12/03 05:57:44;;;;;;;10.70;5.30;;;;;;;9.25;76.00;93716.19;5123772;27;20227;-69
2021/12/03 06:00:17;;;;;;;7.53;5.03;;;;;;;9.31;74.64;93730.03;5128941;27;20203;-70
2021/12/03 06:02:48;;;;;;;12.17;5.30;;;;;;;9.23;75.33;93720.84;5123557;27;20203;-70
2021/12/03 06:05:17;;;;;;;5.50;3.60;;;;;;;9.26;75.67;93686.69;5128802;27;20754;-70
2021/12/03 06:07:48;;;;;;;9.10;2.70;;;;;;;9.46;74.42;93717.34;5123994;27;21020;-71
2021/12/03 06:10:18;;;;;;;6.20;3.30;;;;;;;9.61;74.10;93707.19;5122545;27;20205;-71
2021/12/03 06:12:46;;;;;;;8.23;3.70;;;;;;;9.75;72.97;93698.09;5121157;27;20203;-71
2021/12/03 06:15:15;;;;;;;7.83;3.40;;;;;;;9.97;70.03;93735.28;5122966;27;20681;-72
2021/12/03 06:17:44;;;;;;;10.13;4.10;;;;;;;10.08;70.46;93731.81;5126338;27;20280;-76
2021/12/03 06:20:14;;;;;;;6.67;4.27;;;;;;;10.12;70.17;93735.53;5119160;27;20204;-72
2021/12/03 06:22:43;;;;;;;12.40;4.40;;;;;;;10.24;70.12;93756.22;5127205;27;20199;-71
2021/12/03 06:25:14;;;;;;;6.17;3.80;;;;;;;10.25;70.31;93722.22;5116819;27;20200;-71
2021/12/03 06:27:43;;;;;;;7.93;4.23;;;;;;;10.27;70.47;93726.41;5128312;27;20536;-70
2021/12/03 06:30:13;;;;;;;8.27;3.90;;;;;;;10.22;70.61;93730.50;5121487;27;20293;-71
2021/12/03 06:32:45;;;;;;;8.33;3.40;;;;;;;10.20;69.86;93742.16;5130908;27;20199;-70
2021/12/03 06:35:17;;;;;;;7.03;3.57;;;;;;;10.23;69.60;93752.84;5131261;27;20233;-69
2021/12/03 06:37:47;;;;;;;6.47;3.30;;;;;;;10.41;68.53;93764.78;5131471;27;20215;-70
2021/12/03 06:40:18;;;;;;;8.13;3.17;;;;;;;10.41;68.55;93745.81;5128525;27;20296;-72
2021/12/03 06:42:47;;;;;;;5.43;3.13;;;;;;;10.41;68.34;93744.00;5131219;27;20683;-72
2021/12/03 06:45:16;;;;;;;8.53;3.70;;;;;;;10.45;68.32;93773.66;5131158;27;20199;-72
2021/12/03 06:47:44;;;;;;;8.57;4.43;;;;;;;10.50;67.77;93759.97;5131110;27;20199;-72
2021/12/03 06:50:17;;;;;;;5.63;3.47;;;;;;;10.53;68.37;93755.09;5131730;27;20199;-75
2021/12/03 06:52:49;;;;;;;6.63;3.10;;;;;;;10.64;67.13;93780.19;5131209;27;20199;-70
2021/12/03 06:55:19;;;;;;;7.20;3.43;;;;;;;10.73;66.82;93725.97;5131125;27;20264;-75
2021/12/03 06:57:47;;;;;;;4.93;2.90;;;;;;;10.76;66.44;93785.28;5130156;27;20216;-76
2021/12/03 07:00:18;;;;;;;7.37;3.30;;;;;;;10.87;64.87;93775.78;5129907;27;20192;-69
2021/12/03 07:02:47;;;;;;;8.73;3.43;;;;;;;10.98;64.56;93785.28;5127210;27;20253;-70
2021/12/03 07:05:15;;;;;;;7.20;3.63;;;;;;;10.98;64.98;93769.69;5129153;27;20627;-70
2021/12/03 07:07:47;;;;;;;9.87;3.20;;;;;;;11.05;64.62;93780.69;5130036;27;20286;-70
2021/12/03 07:10:16;;;;;;;8.47;3.03;;;;;;;11.02;65.11;93771.56;5123210;27;20195;-70
2021/12/03 07:12:45;;;;;;;5.97;2.90;;;;;;;11.05;65.28;93788.50;5129353;27;20677;-71
2021/12/03 07:15:12;;;;;;;9.10;3.00;;;;;;;11.09;64.59;93772.16;5128870;27;20270;-71
2021/12/03 07:17:39;;;;;;;6.97;2.67;;;;;;;11.37;64.27;93768.56;5127214;27;20218;-71
2021/12/03 07:20:10;;;;;;;6.53;3.27;;;;;;;11.47;63.87;93762.69;5128382;27;20581;-78
2021/12/03 07:22:39;;;;;;;9.43;2.93;;;;;;;11.53;63.91;93756.50;5125076;27;20192;-75
2021/12/03 07:25:10;;;;;;;7.60;3.83;;;;;;;11.50;64.04;93775.19;5127994;27;20212;-76
2021/12/03 07:27:38;;;;;;;9.10;2.90;;;;;;;11.60;63.07;93751.91;5128932;27;20565;-76
2021/12/03 07:30:08;;;;;;;4.87;2.60;;;;;;;11.64;63.04;93760.78;5129589;27;20199;-75
2021/12/03 07:32:38;;;;;;;8.50;2.70;;;;;;;11.72;62.07;93761.13;5128874;27;20211;-76
2021/12/03 07:35:07;;;;;;;10.57;3.00;;;;;;;11.76;61.85;93764.03;5130073;27;20210;-75
2021/12/03 07:37:36;;;;;;;7.33;3.60;;;;;;;11.83;61.65;93754.97;5129812;27;20291;-75
2021/12/03 07:40:07;;;;;;;6.87;3.47;;;;;;;11.81;61.94;93770.06;5126326;28;20226;-75
2021/12/03 07:42:38;;;;;;;8.50;3.33;;;;;;;11.79;62.37;93747.94;5129737;28;20611;-76
2021/12/03 07:45:08;;;;;;;7.53;2.47;;;;;;;11.92;62.10;93743.09;5129910;28;20207;-75
2021/12/03 07:47:36;;;;;;;10.40;2.77;;;;;;;12.05;61.12;93782.78;5129722;28;20238;-75
2021/12/03 07:50:05;;;;;;;8.97;2.90;;;;;;;12.15;61.14;93762.78;5129016;28;20633;-76
2021/12/03 07:52:34;;;;;;;6.87;3.20;;;;;;;12.12;60.90;93775.56;5129742;28;20195;-78
2021/12/03 07:55:02;;;;;;;7.47;3.40;;;;;;;12.19;60.58;93768.31;5130048;28;20206;-75
2021/12/03 07:57:31;;;;;;;10.37;2.90;;;;;;;12.31;59.92;93787.16;5129475;28;20313;-75
2021/12/03 08:00:03;;;;;;;8.57;3.20;;;;;;;12.37;60.09;93789.56;5129618;28;20214;-76
2021/12/03 08:02:31;;;;;;;9.27;3.53;;;;;;;12.40;60.36;93796.09;5132934;27;20191;-76
2021/12/03 08:04:59;;;;;;;7.40;3.53;;;;;;;12.42;60.15;93794.00;5133877;27;20689;-76
2021/12/03 08:07:27;;;;;;;7.77;3.20;;;;;;;12.43;60.29;93804.19;5134424;27;20195;-76
2021/12/03 08:09:56;;;;;;;6.47;2.90;;;;;;;12.51;59.42;93795.91;5126474;27;20210;-77
2021/12/03 08:12:24;;;;;;;9.87;3.30;;;;;;;12.64;58.44;93797.28;5131518;27;20203;-76
2021/12/03 08:14:51;;;;;;;10.17;2.40;;;;;;;12.71;58.49;93795.25;5132849;27;20231;-76
2021/12/03 08:17:20;;;;;;;9.17;2.37;;;;;;;12.81;58.23;93792.69;5134090;27;20213;-77
2021/12/03 08:19:47;;;;;;;9.33;2.60;;;;;;;12.88;58.62;93815.94;5133299;27;20291;-76
2021/12/03 08:22:15;;;;;;;10.57;2.27;;;;;;;12.95;57.39;93822.50;5130972;27;20248;-77
2021/12/03 08:24:42;;;;;;;5.00;1.83;;;;;;;13.10;56.41;93808.00;5132716;27;20298;-77
2021/12/03 08:27:10;;;;;;;6.97;2.33;;;;;;;13.18;55.91;93804.91;5133249;27;20214;-76
2021/12/03 08:29:38;;;;;;;10.70;2.50;;;;;;;13.22;56.18;93798.91;5129542;27;20303;-77
2021/12/03 08:32:06;;;;;;;6.20;2.63;;;;;;;13.24;56.55;93829.97;5131011;27;20286;-76
2021/12/03 08:34:35;;;;;;;7.67;2.40;;;;;;;13.19;57.02;93816.94;5129348;27;20204;-77
2021/12/03 08:37:03;;;;;;;6.20;2.70;;;;;;;13.11;56.78;93810.34;5131442;27;20219;-76
2021/12/03 08:39:31;;;;;;;8.73;3.07;;;;;;;13.15;57.00;93824.47;5133076;27;20199;-76
2021/12/03 08:41:59;;;;;;;8.60;2.87;;;;;;;13.24;56.07;93819.53;5130306;27;20211;-78
2021/12/03 08:44:27;;;;;;;4.67;1.90;;;;;;;13.27;55.62;93808.59;5133073;27;20734;-76
2021/12/03 08:46:59;;;;;;;5.30;1.70;;;;;;;13.34;55.05;93791.66;5133142;27;20225;-77
2021/12/03 08:49:29;;;;;;;6.47;1.83;;;;;;;13.31;55.64;93815.66;5133331;27;20199;-76
2021/12/03 08:52:23;;;;;;;8.20;2.80;;;;;;;13.24;56.73;93817.72;5133055;27;20199;-77
2021/12/03 08:54:52;;;;;;;8.73;2.90;;;;;;;13.21;57.12;93801.78;5133309;27;20271;-76
2021/12/03 08:57:21;;;;;;;6.87;2.90;;;;;;;13.39;56.87;93812.53;5130473;27;20753;-76
2021/12/03 08:59:49;;;;;;;8.50;2.17;;;;;;;13.39;56.73;93812.53;5130054;27;20239;-76
2021/12/03 09:02:17;;;;;;;8.90;2.83;;;;;;;13.37;56.58;93812.03;5132937;27;20203;-75
2021/12/03 09:04:46;;;;;;;5.23;2.63;;;;;;;13.42;55.75;93827.69;5133148;27;20203;-75
2021/12/03 09:07:15;;;;;;;6.80;2.20;;;;;;;13.44;54.82;93814.41;5128398;27;20282;-75
2021/12/03 09:09:43;;;;;;;16.47;3.37;;;;;;;13.59;54.78;93841.34;5133593;27;20290;-75
2021/12/03 09:12:12;;;;;;;9.73;2.57;;;;;;;13.59;54.49;93837.97;5131873;27;20215;-76
2021/12/03 09:14:42;;;;;;;5.67;2.23;;;;;;;13.61;53.84;93846.31;5131699;27;20230;-76
2021/12/03 09:17:33;;;;;;;6.03;2.37;;;;;;;13.48;54.80;93841.56;5132344;27;20195;-76
2021/12/03 09:20:06;;;;;;;13.90;2.00;;;;;;;13.61;54.02;93834.06;5114177;27;20200;-76
2021/12/03 09:22:40;;;;;;;9.97;2.17;;;;;;;13.51;54.86;93838.44;5131615;27;20199;-76
2021/12/03 09:25:12;;;;;;;5.73;1.77;;;;;;;13.50;54.30;93793.28;5133167;27;20580;-76
2021/12/03 09:27:40;;;;;;;8.87;1.90;;;;;;;13.50;53.97;93808.97;5132157;27;20201;-76
2021/12/03 09:30:12;;;;;;;10.13;1.77;;;;;;;13.56;52.88;93784.41;5131934;27;20574;-76
2021/12/03 09:32:41;;;;;;;12.43;8.43;;;;;;;13.44;54.07;93783.09;5132434;27;20278;-76
2021/12/03 09:35:10;;;;;;;9.97;5.17;;;;;;;13.39;54.81;93809.94;5132389;27;20287;-77
2021/12/03 09:37:39;;;;;;;3.50;1.90;;;;;;;13.50;53.28;93824.63;5125522;27;20212;-77
2021/12/03 09:40:09;;;;;;;9.60;2.03;;;;;;;13.57;52.63;93816.53;5131974;27;20202;-78
2021/12/03 09:42:38;;;;;;;5.20;2.40;;;;;;;13.64;53.19;93827.53;5132263;27;20673;-77
2021/12/03 09:45:07;;;;;;;12.30;2.67;;;;;;;13.62;53.14;93809.50;5131724;27;20195;-77
2021/12/03 09:47:36;;;;;;;7.57;2.70;;;;;;;13.67;53.33;93815.78;5132517;27;20645;-77
2021/12/03 09:50:11;;;;;;;10.27;2.57;;;;;;;13.64;53.32;93823.09;5131820;27;20203;-77
2021/12/03 09:53:02;;;;;;;9.07;2.20;;;;;;;13.69;52.73;93822.31;5131078;27;20195;-77
2021/12/03 09:55:31;;;;;;;9.50;1.80;;;;;;;13.72;51.64;93819.19;5132047;27;20446;-80
2021/12/03 09:58:07;;;;;;;10.13;2.40;;;;;;;13.76;51.96;93827.28;5131674;27;20306;-76
2021/12/03 10:00:39;;;;;;;10.60;1.90;;;;;;;13.85;51.21;93821.28;5131887;27;20191;-77
2021/12/03 10:03:16;;;;;;;14.33;2.27;;;;;;;13.87;50.93;93803.56;5131401;27;20800;-77
2021/12/03 10:14:38;;;;;;;5.87;2.03;;;;;;;13.95;50.45;93795.22;5131016;27;20200;-76
2021/12/03 10:20:07;;;;;;;7.23;2.00;;;;;;;14.08;50.32;93807.00;5118553;27;20206;-77
2021/12/03 10:34:11;;;;;;;7.13;1.77;;;;;;;14.85;48.04;93804.09;5067558;28;20563;-76
2021/12/03 10:40:00;;;;;;;9.90;2.00;;;;;;;15.46;46.23;93798.66;5131490;27;20697;-84
2021/12/03 10:42:40;;;;;;;7.97;1.80;;;;;;;15.85;45.75;93815.25;5126378;27;20200;-80
2021/12/03 10:45:32;;;;;;;14.40;2.27;;;;;;;15.84;45.56;93787.50;5131100;27;20268;-81
2021/12/03 10:48:11;;;;;;;7.77;2.03;;;;;;;15.71;45.79;93791.50;5131553;27;20241;-81
2021/12/03 10:51:01;;;;;;;10.47;3.57;;;;;;;15.73;45.74;93807.72;5127383;27;20577;-81
2021/12/03 10:53:40;;;;;;;9.90;2.60;;;;;;;15.78;45.88;93783.34;5133965;27;20726;-78
2021/12/03 11:13:52;;;;;;;7.93;2.03;;;;;;;14.88;46.74;93806.19;5130725;27;20239;-79
2021/12/03 11:16:57;;;;;;;6.67;2.10;;;;;;;14.80;47.51;93785.00;5127320;27;20239;-86
2021/12/03 11:33:54;;;;;;;9.17;2.40;;;;;;;14.66;47.62;93796.00;5088146;28;20196;-84
2021/12/03 13:18:38;;;;;;;3.63;1.80;;;;;;;14.31;49.32;93793.41;5101125;27;20364;-79
2021/12/03 14:38:08;;;;;;;18.30;7.20;;;;;;;13.41;52.66;93810.50;5125666;28;20245;-76
2021/12/03 14:40:51;;;;;;;18.63;8.30;;;;;;;13.33;52.51;93813.56;5118975;28;20799;-77
2021/12/03 14:52:13;;;;;;;6.40;2.80;;;;;;;13.34;51.24;93812.53;5029499;28;20209;-76
2021/12/03 14:54:51;;;;;;;8.80;2.27;;;;;;;13.41;50.53;93822.75;5086145;28;20224;-76
2021/12/03 15:00:20;;;;;;;6.33;2.27;;;;;;;13.59;49.69;93825.66;5105034;28;20212;-83
2021/12/03 15:05:52;;;;;;;11.40;2.50;;;;;;;13.56;50.37;93841.09;5103351;28;20766;-85
2021/12/03 15:08:23;;;;;;;10.50;2.10;;;;;;;13.68;50.31;93840.84;5104324;28;20207;-84
2021/12/03 15:22:23;;;;;;;10.70;2.27;;;;;;;13.53;50.93;93850.19;5107828;28;20219;-83
2021/12/03 15:24:59;;;;;;;7.87;2.40;;;;;;;13.56;51.12;93861.97;5100824;28;20568;-84
2021/12/03 15:27:46;;;;;;;6.77;1.90;;;;;;;13.51;50.83;93841.84;5104919;28;20199;-83
2021/12/03 15:33:06;;;;;;;10.67;2.67;;;;;;;13.42;52.51;93859.03;5110906;28;20692;-83
2021/12/03 15:35:43;;;;;;;8.77;2.30;;;;;;;13.42;51.69;93871.31;5111523;28;20188;-83
2021/12/03 16:03:51;;;;;;;7.97;3.40;;;;;;;10.69;73.66;93911.97;5111098;28;20207;-82
2021/12/03 16:06:35;;;;;;;5.50;3.70;;;;;;;10.36;75.59;93928.31;5101342;28;20776;-82
2021/12/03 16:09:14;;;;;;;6.80;3.47;;;;;;;10.01;77.93;93918.09;5111371;28;20196;-82
2021/12/03 16:11:47;;;;;;;5.83;3.23;;;;;;;9.78;78.82;93925.16;5111825;28;20269;-82
2021/12/03 16:17:16;;;;;;;12.17;3.70;;;;;;;9.43;80.52;93913.06;5114770;28;20673;-83
2021/12/03 16:43:35;;;;;;;19.47;10.63;;;;;;;8.54;85.48;93940.13;5105955;28;20270;-82
2021/12/03 16:45:21;;;;;;;11.47;5.37;;;;;;;7.86;92.52;93947.44;5108572;28;20203;-82
2021/12/03 16:53:27;;;;;;;8.10;5.03;;;;;;;7.63;95.73;93978.34;5062286;28;20200;-82
2021/12/03 16:56:04;;;;;;;14.33;6.20;;;;;;;7.56;95.92;93966.50;5110220;28;20281;-82
2021/12/03 16:58:33;;;;;;;11.83;6.40;;;;;;;7.51;96.15;93979.25;5104158;28;20222;-83
2021/12/03 17:01:05;;;;;;;16.87;8.07;;;;;;;7.46;96.62;93971.38;5105490;28;20227;-82
2021/12/03 17:03:43;;;;;;;13.27;7.37;;;;;;;7.47;96.52;93971.16;5104913;28;20261;-82
2021/12/03 17:09:11;;;;;;;12.60;7.10;;;;;;;7.16;97.66;93986.78;5073803;28;20221;-82
2021/12/03 17:31:23;;;;;;;9.57;5.10;;;;;;;6.68;99.31;94020.16;5067701;28;20240;-78
2021/12/03 17:48:12;;;;;;;4.77;3.10;;;;;;;6.21;100.00;94024.00;5109866;28;20693;-82
2021/12/03 17:50:47;;;;;;;4.77;3.17;;;;;;;6.19;100.00;94021.66;5108089;28;20198;-81
2021/12/03 17:56:06;;;;;;;4.70;3.40;;;;;;;5.88;100.00;94020.81;5109005;28;20579;-80